createdAt,value
2023-03-24T00:00:35.378Z,80.40
2023-03-24T00:03:06.721Z,80.40
2023-03-24T00:05:38.020Z,79.80
2023-03-24T00:08:09.365Z,80.30
2023-03-24T00:10:41.732Z,79.80
2023-03-24T00:13:12.739Z,78.60
2023-03-24T00:15:43.757Z,79.30
2023-03-24T00:18:15.496Z,79.10
2023-03-24T00:20:48.073Z,79.10
2023-03-24T00:23:19.071Z,79.70
2023-03-24T00:25:50.720Z,79.60
2023-03-24T00:28:21.990Z,79.90
2023-03-24T00:30:54.250Z,80.00
2023-03-24T00:33:26.457Z,79.80
2023-03-24T00:35:58.991Z,78.70
2023-03-24T00:38:30.832Z,79.20
2023-03-24T00:41:02.272Z,78.80
2023-03-24T00:43:33.843Z,79.90
2023-03-24T00:46:07.367Z,79.70
2023-03-24T00:48:50.988Z,79.20
2023-03-24T00:51:24.472Z,79.70
2023-03-24T00:53:56.904Z,79.00
2023-03-24T00:56:30.811Z,79.10
2023-03-24T00:59:03.453Z,79.90
2023-03-24T01:01:37.579Z,79.20
2023-03-24T01:04:09.678Z,78.60
2023-03-24T01:06:41.123Z,78.40
2023-03-24T01:09:13.528Z,78.60
2023-03-24T01:11:45.166Z,77.20
2023-03-24T01:14:17.222Z,77.10
2023-03-24T01:16:48.574Z,76.30
2023-03-24T01:19:19.680Z,76.80
2023-03-24T01:21:52.395Z,77.10
2023-03-24T01:24:25.787Z,77.20
2023-03-24T01:26:57.226Z,77.40
2023-03-24T01:29:28.688Z,77.10
2023-03-24T01:32:00.197Z,76.60
2023-03-24T01:34:31.520Z,76.50
2023-03-24T01:37:03.556Z,77.00
2023-03-24T01:39:35.083Z,76.60
2023-03-24T01:42:06.873Z,76.70
2023-03-24T01:44:40.278Z,76.40
2023-03-24T01:47:11.621Z,76.00
2023-03-24T01:49:47.781Z,76.00
2023-03-24T01:52:30.338Z,76.00
2023-03-24T01:55:04.389Z,75.10
2023-03-24T01:57:44.333Z,75.10
2023-03-24T02:00:18.180Z,74.50
2023-03-24T02:02:56.091Z,74.40
2023-03-24T02:05:29.516Z,74.70
2023-03-24T02:08:05.978Z,74.50
2023-03-24T02:10:45.353Z,73.80
2023-03-24T02:13:16.860Z,72.60
2023-03-24T02:16:10.056Z,73.60
2023-03-24T02:18:56.091Z,73.00
2023-03-24T02:21:29.676Z,73.20
2023-03-24T02:24:27.481Z,72.50
2023-03-24T02:27:01.103Z,71.40
2023-03-24T02:29:52.829Z,72.50
2023-03-24T02:32:55.025Z,72.00
2023-03-24T02:35:43.429Z,71.00
2023-03-24T02:38:37.492Z,71.10
2023-03-24T02:41:16.759Z,70.10
2023-03-24T02:47:10.002Z,69.00
2023-03-24T02:49:53.008Z,69.50
2023-03-24T02:52:35.650Z,68.90
2023-03-24T02:55:18.418Z,68.30
2023-03-24T02:58:04.159Z,67.20
2023-03-24T03:00:42.345Z,66.40
2023-03-24T03:03:15.938Z,67.30
2023-03-24T03:05:49.354Z,66.10
2023-03-24T03:08:22.879Z,65.70
2023-03-24T03:10:56.848Z,65.80
2023-03-24T03:13:40.371Z,66.40
2023-03-24T03:16:17.216Z,66.30
2023-03-24T03:18:51.578Z,65.60
2023-03-24T03:21:25.460Z,66.60
2023-03-24T03:23:58.792Z,65.10
2023-03-24T03:26:33.300Z,64.20
2023-03-24T03:29:09.115Z,65.10
2023-03-24T03:31:46.639Z,64.90
2023-03-24T03:34:23.343Z,65.10
2023-03-24T03:36:57.293Z,64.70
2023-03-24T03:39:33.766Z,64.60
2023-03-24T03:42:04.216Z,63.90
2023-03-24T03:44:35.344Z,63.80
2023-03-24T03:47:06.416Z,63.00
2023-03-24T03:49:38.492Z,63.70
2023-03-24T03:52:16.742Z,63.10
2023-03-24T03:54:49.744Z,61.40
2023-03-24T03:57:21.913Z,60.80
2023-03-24T03:59:53.106Z,61.70
2023-03-24T04:02:36.669Z,61.10
2023-03-24T04:05:28.786Z,59.30
2023-03-24T04:08:08.001Z,59.70
2023-03-24T04:10:53.720Z,60.10
2023-03-24T04:13:42.024Z,60.00
2023-03-24T04:16:22.434Z,58.70
2023-03-24T04:18:56.136Z,58.40
2023-03-24T04:21:35.533Z,57.90
2023-03-24T04:24:35.962Z,57.40
2023-03-24T04:27:27.503Z,57.30
2023-03-24T04:30:07.364Z,56.80
2023-03-24T04:32:44.619Z,57.20
2023-03-24T04:35:34.519Z,56.60
2023-03-24T04:38:08.396Z,55.10
2023-03-24T04:40:43.594Z,55.40
2023-03-24T04:43:18.927Z,56.20
2023-03-24T04:45:50.879Z,56.20
2023-03-24T04:48:23.390Z,55.40
2023-03-24T04:50:59.904Z,54.90
2023-03-24T04:53:34.051Z,54.50
2023-03-24T04:56:07.962Z,54.40
2023-03-24T04:58:39.053Z,55.20
2023-03-24T05:01:10.904Z,55.20
2023-03-24T05:03:46.160Z,55.50
2023-03-24T05:08:50.149Z,52.70
2023-03-24T05:11:22.409Z,53.80
2023-03-24T05:13:53.908Z,54.70
2023-03-24T05:16:27.370Z,90.30
2023-03-24T05:18:58.564Z,91.00
2023-03-24T05:21:30.928Z,75.40
2023-03-24T05:24:02.384Z,75.20
2023-03-24T05:26:33.688Z,83.50
2023-03-24T05:29:04.829Z,69.40
2023-03-24T05:31:35.880Z,57.60
2023-03-24T05:34:07.316Z,56.80
2023-03-24T05:36:39.542Z,53.70
2023-03-24T05:39:10.899Z,53.90
2023-03-24T05:41:42.072Z,54.30
2023-03-24T05:44:13.580Z,55.40
2023-03-24T05:46:45.229Z,56.70
2023-03-24T05:49:16.461Z,56.30
2023-03-24T05:51:47.592Z,55.30
2023-03-24T05:54:18.771Z,53.30
2023-03-24T05:56:50.135Z,52.50
2023-03-24T05:59:21.281Z,53.60
2023-03-24T06:01:53.708Z,53.00
2023-03-24T06:04:25.880Z,53.30
2023-03-24T06:06:57.103Z,53.50
2023-03-24T06:09:31.057Z,53.70
2023-03-24T06:12:03.805Z,53.50
2023-03-24T06:14:34.966Z,53.70
2023-03-24T06:17:06.084Z,53.50
2023-03-24T06:19:38.917Z,54.00
2023-03-24T06:22:09.928Z,53.10
2023-03-24T06:24:41.007Z,53.20
2023-03-24T06:27:12.746Z,52.40
2023-03-24T06:30:14.042Z,52.70
2023-03-24T06:32:47.043Z,50.30
2023-03-24T06:35:21.002Z,49.50
2023-03-24T06:37:53.387Z,46.40
2023-03-24T06:40:24.790Z,47.00
2023-03-24T06:42:55.952Z,47.20
2023-03-24T06:45:27.899Z,46.60
2023-03-24T06:47:59.772Z,47.50
2023-03-24T06:50:32.496Z,47.00
2023-03-24T06:53:04.493Z,46.70
2023-03-24T06:55:35.768Z,46.50
2023-03-24T06:58:07.114Z,47.00
2023-03-24T07:00:39.112Z,47.20
2023-03-24T07:03:10.329Z,47.40
2023-03-24T07:05:43.962Z,46.10
2023-03-24T07:10:47.912Z,46.00
2023-03-24T07:13:18.984Z,47.10
2023-03-24T07:15:50.301Z,47.10
2023-03-24T07:18:21.490Z,46.30
2023-03-24T07:20:53.089Z,46.10
2023-03-24T07:23:25.713Z,45.10
2023-03-24T07:25:57.267Z,46.60
2023-03-24T07:28:28.735Z,47.60
2023-03-24T07:31:01.135Z,45.10
2023-03-24T07:33:32.332Z,43.90
2023-03-24T07:36:03.391Z,42.90
2023-03-24T07:38:36.107Z,42.50
2023-03-24T07:41:07.534Z,43.10
2023-03-24T07:43:38.798Z,42.90
2023-03-24T07:46:10.925Z,43.80
2023-03-24T07:48:42.378Z,44.10
2023-03-24T07:51:13.815Z,43.50
2023-03-24T07:53:46.305Z,43.20
2023-03-24T07:56:17.766Z,42.50
2023-03-24T07:58:48.902Z,42.80
2023-03-24T08:01:20.282Z,43.20
2023-03-24T08:03:52.862Z,43.30
2023-03-24T08:06:24.103Z,43.10
2023-03-24T08:08:55.357Z,42.80
2023-03-24T08:11:26.543Z,42.60
2023-03-24T08:13:57.634Z,43.10
2023-03-24T08:16:28.875Z,44.10
2023-03-24T08:19:00.671Z,44.10
2023-03-24T08:21:34.214Z,43.20
2023-03-24T08:24:26.494Z,43.10
2023-03-24T08:26:59.013Z,44.10
2023-03-24T08:29:30.638Z,43.30
2023-03-24T08:32:01.763Z,43.30
2023-03-24T08:34:34.784Z,43.40
2023-03-24T08:37:05.499Z,43.10
2023-03-24T08:39:37.182Z,42.40
2023-03-24T08:42:08.691Z,42.70
2023-03-24T08:44:40.109Z,43.30
2023-03-24T08:47:11.296Z,42.80
2023-03-24T08:49:42.569Z,42.60
2023-03-24T08:52:14.218Z,43.60
2023-03-24T08:55:38.358Z,43.30
2023-03-24T08:58:10.135Z,42.40
2023-03-24T09:00:41.820Z,44.00
2023-03-24T09:03:19.388Z,43.10
2023-03-24T09:06:00.399Z,42.50
2023-03-24T09:08:25.881Z,42.60
2023-03-24T09:10:57.388Z,44.00
2023-03-24T09:13:28.837Z,43.80
2023-03-24T09:16:05.712Z,43.50
2023-03-24T09:18:36.942Z,43.30
2023-03-24T09:21:08.740Z,43.60
2023-03-24T09:23:39.920Z,43.20
2023-03-24T09:26:11.271Z,43.10
2023-03-24T09:28:42.535Z,43.40
2023-03-24T09:31:14.267Z,43.60
2023-03-24T09:33:45.378Z,43.60
2023-03-24T09:36:16.605Z,44.00
2023-03-24T09:38:54.648Z,43.70
2023-03-24T09:41:23.034Z,44.60
2023-03-24T09:43:57.839Z,45.10
2023-03-24T09:46:31.368Z,43.90
2023-03-24T09:49:02.700Z,44.30
2023-03-24T09:51:36.505Z,44.40
2023-03-24T09:54:25.272Z,44.50
2023-03-24T09:56:58.094Z,44.60
2023-03-24T09:59:37.421Z,45.00
2023-03-24T10:02:16.889Z,45.10
2023-03-24T10:04:49.112Z,45.20
2023-03-24T10:07:26.609Z,44.60
2023-03-24T10:10:01.165Z,44.10
2023-03-24T10:12:37.845Z,44.40
2023-03-24T10:15:37.832Z,44.50
2023-03-24T10:18:05.880Z,45.40
2023-03-24T10:20:45.148Z,45.40
2023-03-24T10:23:24.404Z,45.20
2023-03-24T10:26:03.972Z,45.30
2023-03-24T10:28:55.949Z,44.80
2023-03-24T10:31:32.593Z,45.80
2023-03-24T10:34:04.258Z,45.20
2023-03-24T10:36:37.351Z,45.70
2023-03-24T10:41:42.920Z,46.20
2023-03-24T10:44:15.865Z,45.80
2023-03-24T10:46:52.500Z,46.20
2023-03-24T10:49:25.831Z,45.60
2023-03-24T10:52:00.020Z,46.00
2023-03-24T10:54:33.085Z,45.50
2023-03-24T10:57:07.090Z,46.00
2023-03-24T10:59:40.945Z,46.10
2023-03-24T11:02:17.514Z,46.30
2023-03-24T11:04:53.630Z,46.70
2023-03-24T11:07:25.121Z,46.70
2023-03-24T11:10:15.282Z,47.20
2023-03-24T11:13:02.153Z,47.30
2023-03-24T11:15:42.832Z,47.80
2023-03-24T11:18:18.106Z,47.70
2023-03-24T11:21:09.303Z,47.50
2023-03-24T11:23:46.601Z,47.50
2023-03-24T11:26:26.030Z,47.60
2023-03-24T11:29:02.082Z,47.70
2023-03-24T11:31:36.263Z,47.90
2023-03-24T11:34:12.587Z,48.20
2023-03-24T11:36:46.438Z,48.40
2023-03-24T11:39:18.836Z,48.60
2023-03-24T11:42:17.472Z,48.50
2023-03-24T11:44:53.584Z,48.50
2023-03-24T11:47:41.466Z,48.50
2023-03-24T11:50:18.283Z,48.80
2023-03-24T11:53:07.887Z,48.90
2023-03-24T11:55:58.449Z,49.10
2023-03-24T11:58:37.607Z,48.90
2023-03-24T12:01:10.985Z,49.00
2023-03-24T12:03:49.097Z,49.30
2023-03-24T12:06:34.404Z,49.50
2023-03-24T12:09:14.184Z,49.60
2023-03-24T12:12:10.392Z,50.20
2023-03-24T12:14:46.753Z,50.10
2023-03-24T12:17:19.941Z,50.00
2023-03-24T12:20:08.310Z,50.00
2023-03-24T12:22:47.553Z,50.20
2023-03-24T12:25:50.436Z,50.40
2023-03-24T12:28:41.757Z,50.50
2023-03-24T12:31:37.046Z,50.70
2023-03-24T12:34:16.256Z,50.70
2023-03-24T12:37:13.573Z,50.60
2023-03-24T12:39:47.025Z,50.90
2023-03-24T12:42:20.601Z,51.00
2023-03-24T12:45:09.052Z,51.10
2023-03-24T12:47:57.291Z,51.20
2023-03-24T12:50:36.173Z,51.40
2023-03-24T12:53:27.589Z,51.30
2023-03-24T12:56:23.234Z,51.70
2023-03-24T12:59:08.537Z,51.60
2023-03-24T13:01:47.099Z,51.50
2023-03-24T13:04:39.505Z,51.40
2023-03-24T13:07:15.827Z,51.50
2023-03-24T13:09:49.890Z,51.70
2023-03-24T13:12:26.176Z,51.90
2023-03-24T13:15:06.395Z,51.80
2023-03-24T13:17:44.923Z,52.10
2023-03-24T13:20:29.189Z,52.10
2023-03-24T13:23:01.590Z,52.10
2023-03-24T13:25:37.735Z,52.30
2023-03-24T13:28:11.152Z,52.40
2023-03-24T13:30:43.693Z,52.40
2023-03-24T13:33:23.175Z,52.30
2023-03-24T13:36:05.563Z,52.50
2023-03-24T13:38:45.126Z,52.60
2023-03-24T13:41:18.512Z,52.70
2023-03-24T13:43:54.770Z,52.90
2023-03-24T13:46:24.525Z,53.10
2023-03-24T13:48:57.937Z,53.20
2023-03-24T13:51:40.596Z,53.60
2023-03-24T13:54:19.819Z,53.50
2023-03-24T13:57:24.430Z,53.70
2023-03-24T14:00:10.143Z,54.00
2023-03-24T14:02:56.467Z,54.10
2023-03-24T14:05:38.084Z,53.90
2023-03-24T14:08:11.666Z,54.00
2023-03-24T14:10:45.555Z,54.30
2023-03-24T14:13:19.097Z,54.60
2023-03-24T14:15:55.413Z,54.70
2023-03-24T14:18:28.889Z,55.10
2023-03-24T14:21:03.095Z,55.50
2023-03-24T14:23:42.690Z,55.90
2023-03-24T14:26:19.351Z,56.00
2023-03-24T14:28:52.924Z,55.50
2023-03-24T14:31:38.642Z,55.20
2023-03-24T14:34:17.948Z,55.00
2023-03-24T14:36:50.956Z,54.80
2023-03-24T14:39:48.329Z,54.70
2023-03-24T14:42:39.946Z,54.70
2023-03-24T14:45:31.947Z,54.90
2023-03-24T14:48:07.635Z,55.00
2023-03-24T14:50:39.829Z,52.80
2023-03-24T14:53:15.698Z,52.60
2023-03-24T14:55:47.691Z,52.60
2023-03-24T14:58:27.844Z,53.40
2023-03-24T15:01:07.704Z,55.20
2023-03-24T15:03:46.813Z,55.50
2023-03-24T15:06:20.239Z,55.60
2023-03-24T15:09:00.768Z,54.80
2023-03-24T15:11:36.777Z,52.90
2023-03-24T15:14:10.418Z,53.00
2023-03-24T15:16:41.732Z,53.00
2023-03-24T15:19:15.161Z,53.30
2023-03-24T15:22:03.293Z,55.30
2023-03-24T15:24:37.320Z,55.10
2023-03-24T15:27:22.458Z,55.40
2023-03-24T15:29:59.651Z,55.50
2023-03-24T15:32:33.246Z,54.00
2023-03-24T15:35:07.015Z,53.80
2023-03-24T15:37:42.456Z,57.30
2023-03-24T15:40:33.847Z,57.50
2023-03-24T15:43:10.587Z,57.70
2023-03-24T15:45:57.918Z,58.30
2023-03-24T15:48:25.599Z,58.30
2023-03-24T15:51:02.687Z,58.30
2023-03-24T15:53:45.472Z,58.90
2023-03-24T15:56:24.836Z,59.40
2023-03-24T15:59:10.313Z,59.90
2023-03-24T16:01:44.809Z,60.50
2023-03-24T16:04:17.967Z,60.90
2023-03-24T16:06:54.578Z,60.60
2023-03-24T16:09:27.959Z,60.80
2023-03-24T16:11:59.562Z,61.10
2023-03-24T16:14:33.929Z,60.90
2023-03-24T16:17:05.898Z,61.20
2023-03-24T16:19:37.090Z,63.10
2023-03-24T16:22:13.341Z,64.10
2023-03-24T16:24:47.005Z,63.90
2023-03-24T16:27:19.635Z,63.40
2023-03-24T16:29:50.703Z,63.10
2023-03-24T16:32:22.460Z,63.10
2023-03-24T16:34:53.581Z,63.10
2023-03-24T16:37:24.588Z,63.00
2023-03-24T16:39:55.603Z,63.00
2023-03-24T16:42:26.824Z,63.40
2023-03-24T16:44:57.976Z,63.40
2023-03-24T16:47:29.018Z,64.00
2023-03-24T16:50:00.168Z,64.40
2023-03-24T16:52:31.234Z,64.60
2023-03-24T16:55:02.359Z,65.10
2023-03-24T16:57:33.366Z,65.40
2023-03-24T17:00:05.871Z,66.00
2023-03-24T17:02:38.778Z,65.50
2023-03-24T17:05:19.503Z,65.50
2023-03-24T17:07:50.554Z,55.70
2023-03-24T17:10:21.885Z,56.00
2023-03-24T17:12:54.470Z,56.00
2023-03-24T17:15:34.528Z,56.50
2023-03-24T17:18:06.357Z,56.80
2023-03-24T17:20:38.707Z,56.60
2023-03-24T17:23:12.045Z,56.60
2023-03-24T17:25:43.100Z,57.20
2023-03-24T17:28:18.957Z,57.40
2023-03-24T17:30:50.134Z,57.20
2023-03-24T17:33:21.662Z,57.60
2023-03-24T17:35:53.571Z,57.90
2023-03-24T17:38:24.740Z,58.90
2023-03-24T17:41:05.609Z,58.30
2023-03-24T17:43:36.613Z,58.70
2023-03-24T17:46:07.943Z,58.80
2023-03-24T17:48:39.039Z,59.00
2023-03-24T17:51:10.370Z,59.10
2023-03-24T17:53:41.493Z,59.60
2023-03-24T17:56:12.701Z,59.30
2023-03-24T17:58:45.127Z,59.60
2023-03-24T18:01:17.906Z,59.50
2023-03-24T18:03:50.609Z,59.80
2023-03-24T18:06:21.591Z,59.80
2023-03-24T18:08:54.143Z,60.30
2023-03-24T18:11:25.288Z,60.50
2023-03-24T18:13:56.375Z,60.40
2023-03-24T18:16:28.792Z,60.50
2023-03-24T18:19:01.638Z,61.50
2023-03-24T18:21:33.007Z,61.50
2023-03-24T18:24:04.987Z,61.70
2023-03-24T18:26:36.394Z,61.70
2023-03-24T18:29:08.098Z,62.00
2023-03-24T18:31:39.194Z,62.30
2023-03-24T18:34:10.677Z,62.20
2023-03-24T18:36:41.743Z,62.00
2023-03-24T18:39:13.150Z,61.80
2023-03-24T18:41:44.442Z,61.80
2023-03-24T18:44:16.903Z,61.70
2023-03-24T18:46:47.896Z,62.50
2023-03-24T18:49:18.900Z,63.40
2023-03-24T18:51:49.924Z,64.10
2023-03-24T18:54:23.366Z,62.80
2023-03-24T18:56:54.425Z,62.80
2023-03-24T18:59:25.722Z,62.10
2023-03-24T19:01:57.266Z,63.00
2023-03-24T19:04:28.572Z,62.90
2023-03-24T19:07:01.031Z,62.80
2023-03-24T19:09:32.584Z,62.70
2023-03-24T19:12:03.961Z,63.60
2023-03-24T19:14:35.371Z,62.50
2023-03-24T19:17:06.787Z,61.90
2023-03-24T19:19:37.999Z,61.80
2023-03-24T19:22:09.444Z,62.10
2023-03-24T19:24:40.959Z,62.20
2023-03-24T19:27:11.926Z,62.20
2023-03-24T19:29:43.255Z,64.00
2023-03-24T19:32:14.744Z,63.40
2023-03-24T19:34:45.968Z,63.20
2023-03-24T19:37:17.379Z,63.10
2023-03-24T19:39:48.445Z,63.00
2023-03-24T19:42:19.388Z,63.40
2023-03-24T19:44:50.604Z,63.70
2023-03-24T19:47:21.675Z,64.20
2023-03-24T19:49:52.684Z,64.40
2023-03-24T19:52:23.660Z,64.10
2023-03-24T19:54:54.880Z,64.30
2023-03-24T19:57:26.332Z,63.90
2023-03-24T20:00:00.616Z,63.90
2023-03-24T20:02:35.575Z,63.60
2023-03-24T20:05:07.917Z,64.20
2023-03-24T20:07:39.337Z,64.70
2023-03-24T20:10:11.262Z,64.90
2023-03-24T20:12:42.376Z,64.50
2023-03-24T20:15:13.893Z,65.00
2023-03-24T20:17:45.005Z,65.20
2023-03-24T20:20:17.584Z,65.00
2023-03-24T20:22:49.803Z,64.90
2023-03-24T20:25:21.910Z,65.30
2023-03-24T20:27:53.267Z,65.40
2023-03-24T20:30:25.436Z,65.50
2023-03-24T20:32:58.424Z,65.20
2023-03-24T20:35:29.723Z,65.40
2023-03-24T20:38:01.002Z,66.20
2023-03-24T20:40:32.315Z,65.40
2023-03-24T20:43:03.323Z,65.50
2023-03-24T20:45:34.330Z,65.80
2023-03-24T20:48:05.851Z,65.80
2023-03-24T20:50:38.037Z,65.90
2023-03-24T20:53:09.610Z,65.80
2023-03-24T20:55:40.550Z,66.00
2023-03-24T20:58:12.391Z,66.00
2023-03-24T21:00:44.771Z,66.60
2023-03-24T21:03:15.864Z,66.60
2023-03-24T21:05:46.934Z,66.70
2023-03-24T21:08:18.229Z,66.50
2023-03-24T21:10:49.212Z,66.70
2023-03-24T21:13:21.771Z,66.90
2023-03-24T21:15:52.575Z,67.70
2023-03-24T21:18:24.010Z,67.00
2023-03-24T21:20:56.792Z,67.60
2023-03-24T21:23:28.634Z,70.70
2023-03-24T21:25:59.918Z,66.80
2023-03-24T21:28:31.884Z,66.80
2023-03-24T21:31:11.160Z,66.40
2023-03-24T21:33:43.693Z,66.40
2023-03-24T21:36:15.840Z,66.60
2023-03-24T21:38:47.079Z,66.60
2023-03-24T21:41:18.787Z,69.70
2023-03-24T21:43:51.538Z,74.50
2023-03-24T21:46:23.850Z,67.40
2023-03-24T21:48:56.606Z,67.90
2023-03-24T21:51:31.413Z,68.10
2023-03-24T21:54:06.040Z,68.90
2023-03-24T21:56:38.964Z,73.00
2023-03-24T21:59:10.944Z,68.60
2023-03-24T22:01:42.134Z,69.00
2023-03-24T22:04:14.475Z,68.00
2023-03-24T22:06:45.568Z,68.80
2023-03-24T22:09:18.346Z,68.70
2023-03-24T22:11:49.999Z,68.80
2023-03-24T22:14:22.479Z,69.40
2023-03-24T22:16:54.923Z,69.60
2023-03-24T22:19:26.180Z,70.00
2023-03-24T22:21:58.641Z,70.00
2023-03-24T22:24:31.047Z,70.20
2023-03-24T22:27:03.341Z,70.40
2023-03-24T22:29:34.346Z,70.90
2023-03-24T22:32:05.383Z,71.30
2023-03-24T22:34:36.506Z,71.10
2023-03-24T22:37:07.532Z,71.90
2023-03-24T22:39:40.795Z,71.50
2023-03-24T22:42:12.216Z,72.20
2023-03-24T22:44:43.429Z,72.60
2023-03-24T22:47:14.420Z,72.70
2023-03-24T22:49:45.560Z,73.00
2023-03-24T22:52:16.598Z,73.10
2023-03-24T22:54:47.594Z,73.00
2023-03-24T22:57:19.784Z,73.80
2023-03-24T22:59:50.774Z,73.30
2023-03-24T23:02:23.274Z,73.60
2023-03-24T23:04:55.114Z,73.70
2023-03-24T23:07:27.589Z,73.60
2023-03-24T23:09:59.933Z,74.00
2023-03-24T23:12:31.433Z,74.60
2023-03-24T23:15:02.515Z,75.00
2023-03-24T23:17:33.594Z,75.30
2023-03-24T23:20:06.065Z,75.70
2023-03-24T23:22:38.829Z,76.00
2023-03-24T23:25:10.480Z,76.20
2023-03-24T23:27:41.769Z,76.70
2023-03-24T23:30:14.517Z,76.90
2023-03-24T23:32:47.344Z,76.80
2023-03-24T23:35:18.487Z,76.50
2023-03-24T23:37:49.576Z,76.50
2023-03-24T23:40:21.073Z,76.00
2023-03-24T23:43:12.600Z,76.00
2023-03-24T23:45:44.031Z,75.70
2023-03-24T23:48:15.039Z,75.90
2023-03-24T23:50:47.725Z,75.80
2023-03-24T23:53:19.272Z,75.80
2023-03-24T23:55:56.643Z,76.20
2023-03-24T23:58:30.279Z,76.30
